createdAt,value
2018-12-12T00:02:17.004Z,3.30
2018-12-12T00:04:50.747Z,3.30
2018-12-12T00:07:24.316Z,3.40
2018-12-12T00:09:58.530Z,3.50
2018-12-12T00:12:32.175Z,3.40
2018-12-12T00:15:05.974Z,3.40
2018-12-12T00:17:39.694Z,3.30
2018-12-12T00:20:13.262Z,3.30
2018-12-12T00:22:46.874Z,3.30
2018-12-12T00:25:20.361Z,3.30
2018-12-12T00:27:53.927Z,3.40
2018-12-12T00:30:27.614Z,3.50
2018-12-12T00:33:01.223Z,3.40
2018-12-12T00:35:34.877Z,3.40
2018-12-12T00:38:08.401Z,3.40
2018-12-12T00:40:42.885Z,3.30
2018-12-12T00:43:17.271Z,3.30
2018-12-12T00:46:06.875Z,3.40
2018-12-12T00:48:40.543Z,3.40
2018-12-12T00:51:15.085Z,3.40
2018-12-12T00:53:48.753Z,3.40
2018-12-12T00:56:22.544Z,3.40
2018-12-12T00:58:56.334Z,3.50
2018-12-12T01:01:30.113Z,3.40
2018-12-12T01:04:03.933Z,3.40
2018-12-12T01:06:37.654Z,3.40
2018-12-12T01:09:11.489Z,3.40
2018-12-12T01:11:50.846Z,3.40
2018-12-12T01:14:24.789Z,3.30
2018-12-12T01:16:58.611Z,3.20
2018-12-12T01:19:32.322Z,3.20
2018-12-12T01:22:06.090Z,3.20
2018-12-12T01:24:39.912Z,3.20
2018-12-12T01:27:13.701Z,3.20
2018-12-12T01:29:47.534Z,3.30
2018-12-12T01:32:21.401Z,3.30
2018-12-12T01:34:55.873Z,3.40
2018-12-12T01:37:29.755Z,3.30
2018-12-12T01:40:03.515Z,3.40
2018-12-12T01:42:37.349Z,3.40
2018-12-12T01:45:11.104Z,3.40
2018-12-12T01:47:44.929Z,3.30
2018-12-12T01:50:18.752Z,3.20
2018-12-12T01:52:53.449Z,3.20
2018-12-12T01:55:27.938Z,3.20
2018-12-12T01:58:01.667Z,3.20
2018-12-12T02:00:35.248Z,3.20
2018-12-12T02:03:09.627Z,3.30
2018-12-12T02:05:44.015Z,3.30
2018-12-12T02:08:17.602Z,3.30
2018-12-12T02:10:51.487Z,3.30
2018-12-12T02:13:41.871Z,3.40
2018-12-12T02:16:15.570Z,3.40
2018-12-12T02:18:49.323Z,3.40
2018-12-12T02:21:23.065Z,3.30
2018-12-12T02:23:57.217Z,3.30
2018-12-12T02:26:31.563Z,3.50
2018-12-12T02:29:05.166Z,3.40
2018-12-12T02:31:38.700Z,3.50
2018-12-12T02:34:13.171Z,3.50
2018-12-12T02:36:47.508Z,3.40
2018-12-12T02:39:21.963Z,3.20
2018-12-12T02:41:55.661Z,3.20
2018-12-12T02:44:29.335Z,3.20
2018-12-12T02:47:02.946Z,3.20
2018-12-12T02:49:36.632Z,3.10
2018-12-12T02:52:10.259Z,3.00
2018-12-12T02:54:44.108Z,3.10
2018-12-12T02:57:17.679Z,3.20
2018-12-12T02:59:51.357Z,3.30
2018-12-12T03:02:25.057Z,3.30
2018-12-12T03:04:58.757Z,3.30
2018-12-12T03:07:32.540Z,3.20
2018-12-12T03:10:06.843Z,3.30
2018-12-12T03:12:41.161Z,3.30
2018-12-12T03:15:15.521Z,3.30
2018-12-12T03:17:49.243Z,3.30
2018-12-12T03:20:23.060Z,3.30
2018-12-12T03:22:56.832Z,3.30
2018-12-12T03:25:31.122Z,3.30
2018-12-12T03:28:04.849Z,3.30
2018-12-12T03:30:38.406Z,3.40
2018-12-12T03:33:12.190Z,3.40
2018-12-12T03:35:46.490Z,3.40
2018-12-12T03:38:20.990Z,3.40
2018-12-12T03:40:54.816Z,3.40
2018-12-12T03:43:28.485Z,3.30
2018-12-12T03:46:03.105Z,3.20
2018-12-12T03:48:36.662Z,3.20
2018-12-12T03:51:10.256Z,3.20
2018-12-12T03:53:43.914Z,3.20
2018-12-12T03:56:18.231Z,3.10
2018-12-12T03:58:51.916Z,3.10
2018-12-12T04:01:26.385Z,3.30
2018-12-12T04:04:00.068Z,3.20
2018-12-12T04:06:33.864Z,3.30
2018-12-12T04:09:07.487Z,3.30
2018-12-12T04:11:41.068Z,3.20
2018-12-12T04:14:14.728Z,3.20
2018-12-12T04:16:48.432Z,3.30
2018-12-12T04:19:22.138Z,3.40
2018-12-12T04:21:55.882Z,3.40
2018-12-12T04:24:29.602Z,3.30
2018-12-12T04:27:03.330Z,3.30
2018-12-12T04:29:37.133Z,3.20
2018-12-12T04:32:11.627Z,3.10
2018-12-12T04:34:45.374Z,3.10
2018-12-12T04:37:19.055Z,3.20
2018-12-12T04:39:52.757Z,3.20
2018-12-12T04:42:26.517Z,3.40
2018-12-12T04:45:01.067Z,3.50
2018-12-12T04:47:34.858Z,3.50
2018-12-12T04:50:08.643Z,3.60
2018-12-12T04:52:42.323Z,3.50
2018-12-12T04:55:16.934Z,3.50
2018-12-12T04:57:50.607Z,3.40
2018-12-12T05:00:24.229Z,3.40
2018-12-12T05:02:58.008Z,3.40
2018-12-12T05:05:31.613Z,3.40
2018-12-12T05:08:05.350Z,3.50
2018-12-12T05:10:38.945Z,3.50
2018-12-12T05:13:12.739Z,3.50
2018-12-12T05:15:46.335Z,3.50
2018-12-12T05:18:20.115Z,3.60
2018-12-12T05:20:53.724Z,3.60
2018-12-12T05:23:27.529Z,3.70
2018-12-12T05:26:01.295Z,3.60
2018-12-12T05:28:35.161Z,3.60
2018-12-12T05:31:08.970Z,3.60
2018-12-12T05:33:42.586Z,3.60
2018-12-12T05:36:17.398Z,3.60
2018-12-12T05:38:51.193Z,3.60
2018-12-12T05:41:25.208Z,3.60
2018-12-12T05:43:58.940Z,3.50
2018-12-12T05:46:32.713Z,3.40
2018-12-12T05:49:06.269Z,3.40
2018-12-12T05:51:40.971Z,3.30
2018-12-12T05:54:14.747Z,3.30
2018-12-12T05:56:52.379Z,3.30
2018-12-12T05:59:22.184Z,3.30
2018-12-12T06:01:56.517Z,3.40
2018-12-12T06:04:30.178Z,3.40
2018-12-12T06:07:03.845Z,3.40
2018-12-12T06:09:37.400Z,3.40
2018-12-12T06:12:11.099Z,3.30
2018-12-12T06:14:44.892Z,3.30
2018-12-12T06:17:18.793Z,3.20
2018-12-12T06:19:52.415Z,3.30
2018-12-12T06:22:26.178Z,3.30
2018-12-12T06:25:00.123Z,3.20
2018-12-12T06:27:33.762Z,3.20
2018-12-12T06:30:07.936Z,3.20
2018-12-12T06:32:43.487Z,3.30
2018-12-12T06:35:17.298Z,3.50
2018-12-12T06:37:52.395Z,3.70
2018-12-12T06:40:26.043Z,3.90
2018-12-12T06:42:59.782Z,3.80
2018-12-12T06:45:34.040Z,3.70
2018-12-12T06:48:08.395Z,3.60
2018-12-12T06:50:44.679Z,3.70
2018-12-12T06:53:18.535Z,3.60
2018-12-12T06:55:52.372Z,3.50
2018-12-12T06:58:26.100Z,3.60
2018-12-12T07:00:59.933Z,3.60
2018-12-12T07:03:42.108Z,3.60
2018-12-12T07:06:16.607Z,3.50
2018-12-12T07:08:50.329Z,3.50
2018-12-12T07:11:24.736Z,3.60
2018-12-12T07:14:00.095Z,3.70
2018-12-12T07:16:34.192Z,3.70
2018-12-12T07:19:07.803Z,3.80
2018-12-12T07:21:41.863Z,3.80
2018-12-12T07:24:15.491Z,3.80
2018-12-12T07:26:49.026Z,3.80
2018-12-12T07:29:22.818Z,3.80
2018-12-12T07:31:56.514Z,3.80
2018-12-12T07:34:30.292Z,3.70
2018-12-12T07:37:04.731Z,3.70
2018-12-12T07:39:38.827Z,3.70
2018-12-12T07:42:13.281Z,3.60
2018-12-12T07:44:47.023Z,3.60
2018-12-12T07:47:20.808Z,3.70
2018-12-12T07:49:54.714Z,3.70
2018-12-12T07:52:28.447Z,3.70
2018-12-12T07:55:02.496Z,3.80
2018-12-12T07:57:36.868Z,3.80
2018-12-12T08:00:11.321Z,3.80
2018-12-12T08:02:44.994Z,3.80
2018-12-12T08:05:19.660Z,3.90
2018-12-12T08:07:54.122Z,3.90
2018-12-12T08:10:27.908Z,3.90
2018-12-12T08:13:02.412Z,4.00
2018-12-12T08:15:36.756Z,4.00
2018-12-12T08:18:10.320Z,4.00
2018-12-12T08:20:43.959Z,4.00
2018-12-12T08:23:17.765Z,3.90
2018-12-12T08:25:51.450Z,4.00
2018-12-12T08:28:25.296Z,3.90
2018-12-12T08:30:59.099Z,4.00
2018-12-12T08:33:32.872Z,4.00
2018-12-12T08:36:07.298Z,4.00
2018-12-12T08:38:41.136Z,4.00
2018-12-12T08:41:14.795Z,4.00
2018-12-12T08:43:48.511Z,4.00
2018-12-12T08:46:22.119Z,4.00
2018-12-12T08:48:56.678Z,4.10
2018-12-12T08:51:30.264Z,4.10
2018-12-12T08:54:04.561Z,4.20
2018-12-12T08:56:38.886Z,4.30
2018-12-12T08:59:12.478Z,4.30
2018-12-12T09:01:46.241Z,4.30
2018-12-12T09:04:19.947Z,4.30
2018-12-12T09:06:53.755Z,4.30
2018-12-12T09:09:27.559Z,4.30
2018-12-12T09:12:01.251Z,4.30
2018-12-12T09:14:35.013Z,4.30
2018-12-12T09:17:09.750Z,4.30
2018-12-12T09:19:43.140Z,4.30
2018-12-12T09:22:16.984Z,4.30
2018-12-12T09:24:50.631Z,4.30
2018-12-12T09:27:24.250Z,4.40
2018-12-12T09:29:57.982Z,4.40
2018-12-12T09:32:31.756Z,4.50
2018-12-12T09:35:05.344Z,4.40
2018-12-12T09:37:39.146Z,4.40
2018-12-12T09:40:13.312Z,4.30
2018-12-12T09:42:47.767Z,4.20
2018-12-12T09:45:21.863Z,4.20
2018-12-12T09:47:55.218Z,4.20
2018-12-12T09:50:29.579Z,4.20
2018-12-12T09:53:03.941Z,4.20
2018-12-12T09:55:37.663Z,4.20
2018-12-12T09:58:11.399Z,4.20
2018-12-12T10:00:46.012Z,4.20
2018-12-12T10:03:19.695Z,4.20
2018-12-12T10:05:53.415Z,4.20
2018-12-12T10:08:27.092Z,4.20
2018-12-12T10:11:00.829Z,4.20
2018-12-12T10:13:34.698Z,4.30
2018-12-12T10:16:08.394Z,4.30
2018-12-12T10:18:42.934Z,4.40
2018-12-12T10:21:16.786Z,4.40
2018-12-12T10:23:50.531Z,4.50
2018-12-12T10:26:25.335Z,4.50
2018-12-12T10:28:59.080Z,4.60
2018-12-12T10:31:32.934Z,4.60
2018-12-12T10:34:06.594Z,4.50
2018-12-12T10:36:40.342Z,4.50
2018-12-12T10:39:14.011Z,4.50
2018-12-12T10:41:47.683Z,4.40
2018-12-12T10:44:21.379Z,4.40
2018-12-12T10:46:55.193Z,4.40
2018-12-12T10:49:29.761Z,4.40
2018-12-12T10:52:03.375Z,4.40
2018-12-12T10:54:37.134Z,4.50
2018-12-12T10:57:10.842Z,4.50
2018-12-12T10:59:44.448Z,4.60
2018-12-12T11:02:23.783Z,4.70
2018-12-12T11:04:58.239Z,4.70
2018-12-12T11:07:31.833Z,4.70
2018-12-12T11:10:05.432Z,4.90
2018-12-12T11:12:39.275Z,4.90
2018-12-12T11:15:14.722Z,5.00
2018-12-12T11:17:48.377Z,5.40
2018-12-12T11:20:22.219Z,5.90
2018-12-12T11:22:55.938Z,6.00
2018-12-12T11:25:29.580Z,6.60
2018-12-12T11:28:03.258Z,6.50
2018-12-12T11:30:37.817Z,6.20
2018-12-12T11:33:11.354Z,6.10
2018-12-12T11:35:44.961Z,6.10
2018-12-12T11:38:18.613Z,6.20
2018-12-12T11:40:53.085Z,6.50
2018-12-12T11:43:26.695Z,6.50
2018-12-12T11:46:00.408Z,6.70
2018-12-12T11:48:34.236Z,6.50
2018-12-12T11:51:08.735Z,5.90
2018-12-12T11:53:43.173Z,5.60
2018-12-12T11:56:16.806Z,5.60
2018-12-12T11:58:50.406Z,5.40
2018-12-12T12:01:24.172Z,5.30
2018-12-12T12:03:58.606Z,5.20
2018-12-12T12:06:32.394Z,5.10
2018-12-12T12:09:06.010Z,5.10
2018-12-12T12:11:39.863Z,4.70
2018-12-12T12:14:13.564Z,4.50
2018-12-12T12:16:48.330Z,4.40
2018-12-12T12:19:22.055Z,4.50
2018-12-12T12:21:55.872Z,4.60
2018-12-12T12:24:30.278Z,4.80
2018-12-12T12:27:04.778Z,4.80
2018-12-12T12:29:39.737Z,4.80
2018-12-12T12:32:12.314Z,4.90
2018-12-12T12:34:45.958Z,4.80
2018-12-12T12:37:20.430Z,4.80
2018-12-12T12:39:54.138Z,4.80
2018-12-12T12:42:28.645Z,4.90
2018-12-12T12:45:02.442Z,4.90
2018-12-12T12:47:36.192Z,4.90
2018-12-12T12:50:09.937Z,4.90
2018-12-12T12:52:43.696Z,5.00
2018-12-12T12:55:17.299Z,5.00
2018-12-12T12:57:51.007Z,5.00
2018-12-12T13:00:24.745Z,5.00
2018-12-12T13:02:58.373Z,5.00
2018-12-12T13:05:32.159Z,5.00
2018-12-12T13:08:05.930Z,5.10
2018-12-12T13:10:39.846Z,5.10
2018-12-12T13:13:14.268Z,5.20
2018-12-12T13:15:48.680Z,5.20
2018-12-12T13:18:22.415Z,5.20
2018-12-12T13:20:56.172Z,5.20
2018-12-12T13:23:30.015Z,5.20
2018-12-12T13:26:03.847Z,5.10
2018-12-12T13:28:37.638Z,5.10
2018-12-12T13:31:11.205Z,5.20
2018-12-12T13:33:44.852Z,5.20
2018-12-12T13:36:18.522Z,5.30
2018-12-12T13:38:52.174Z,5.20
2018-12-12T13:41:25.990Z,5.20
2018-12-12T13:43:59.707Z,5.20
2018-12-12T13:46:33.357Z,5.20
2018-12-12T13:49:07.966Z,5.20
2018-12-12T13:51:41.607Z,5.10
2018-12-12T13:54:16.138Z,5.20
2018-12-12T13:56:50.056Z,5.20
2018-12-12T13:59:24.503Z,5.20
2018-12-12T14:01:58.902Z,5.20
2018-12-12T14:04:32.473Z,5.20
2018-12-12T14:07:06.219Z,5.20
2018-12-12T14:09:39.819Z,5.20
2018-12-12T14:12:17.289Z,5.20
2018-12-12T14:14:47.131Z,5.20
2018-12-12T14:17:20.924Z,5.20
2018-12-12T14:19:54.545Z,5.10
2018-12-12T14:22:28.151Z,5.00
2018-12-12T14:25:01.749Z,4.90
2018-12-12T14:27:38.938Z,4.90
2018-12-12T14:30:09.420Z,5.00
2018-12-12T14:32:43.757Z,5.00
2018-12-12T14:35:18.206Z,4.90
2018-12-12T14:37:51.858Z,4.90
2018-12-12T14:40:25.585Z,4.90
2018-12-12T14:42:59.416Z,4.90
2018-12-12T14:45:33.157Z,4.90
2018-12-12T14:48:06.786Z,4.80
2018-12-12T14:50:40.346Z,4.80
2018-12-12T14:53:14.102Z,4.80
2018-12-12T14:55:47.685Z,4.80
2018-12-12T14:58:21.307Z,4.80
2018-12-12T15:00:55.011Z,4.70
2018-12-12T15:03:28.683Z,4.70
2018-12-12T15:06:04.390Z,4.70
2018-12-12T15:11:38.418Z,4.70
2018-12-12T15:14:12.246Z,4.70
2018-12-12T15:16:45.964Z,4.60
2018-12-12T15:22:20.872Z,4.60
2018-12-12T15:24:54.446Z,4.70
2018-12-12T15:27:28.101Z,4.70
2018-12-12T15:29:59.096Z,4.80
2018-12-12T15:32:32.917Z,4.70
2018-12-12T15:35:06.977Z,4.70
2018-12-12T15:37:40.862Z,4.80
2018-12-12T15:40:15.365Z,4.70
2018-12-12T15:42:48.942Z,4.70
2018-12-12T15:45:22.656Z,4.70
2018-12-12T15:47:56.415Z,4.70
2018-12-12T15:50:30.150Z,4.70
2018-12-12T15:53:03.725Z,4.70
2018-12-12T15:55:37.225Z,4.60
2018-12-12T15:58:10.810Z,4.60
2018-12-12T16:00:45.138Z,4.60
2018-12-12T16:03:18.793Z,4.60
2018-12-12T16:05:52.555Z,4.60
2018-12-12T16:08:27.448Z,4.50
2018-12-12T16:11:01.117Z,4.50
2018-12-12T16:13:34.766Z,4.50
2018-12-12T16:16:08.481Z,4.30
2018-12-12T16:18:42.038Z,4.30
2018-12-12T16:21:15.773Z,4.20
2018-12-12T16:23:50.276Z,4.20
2018-12-12T16:26:23.809Z,4.10
2018-12-12T16:28:57.566Z,4.10
2018-12-12T16:31:32.075Z,4.10
2018-12-12T16:34:06.373Z,4.00
2018-12-12T16:36:40.222Z,4.00
2018-12-12T16:39:18.029Z,4.00
2018-12-12T16:41:52.377Z,4.00
2018-12-12T16:44:26.376Z,4.00
2018-12-12T16:46:59.966Z,4.00
2018-12-12T16:49:33.647Z,4.00
2018-12-12T16:52:07.207Z,4.00
2018-12-12T16:54:40.917Z,4.00
2018-12-12T16:57:14.631Z,4.00
2018-12-12T16:59:49.163Z,4.00
2018-12-12T17:02:22.867Z,4.00
2018-12-12T17:05:02.094Z,4.10
2018-12-12T17:07:30.057Z,4.10
2018-12-12T17:10:03.623Z,3.90
2018-12-12T17:12:37.419Z,3.90
2018-12-12T17:15:11.203Z,3.90
2018-12-12T17:17:45.792Z,4.00
2018-12-12T17:20:20.112Z,4.10
2018-12-12T17:22:53.746Z,4.10
2018-12-12T17:25:27.381Z,4.10
2018-12-12T17:28:00.923Z,4.20
2018-12-12T17:30:34.670Z,4.20
2018-12-12T17:33:08.491Z,4.30
2018-12-12T17:35:42.197Z,4.30
2018-12-12T17:38:15.992Z,4.30
2018-12-12T17:40:49.595Z,4.30
2018-12-12T17:43:23.136Z,4.30
2018-12-12T17:45:56.848Z,4.40
2018-12-12T17:48:30.403Z,4.30
2018-12-12T17:51:04.191Z,4.30
2018-12-12T17:53:37.888Z,4.30
2018-12-12T17:56:12.378Z,4.40
2018-12-12T17:58:46.058Z,4.40
2018-12-12T18:01:19.830Z,4.40
2018-12-12T18:03:53.545Z,4.40
2018-12-12T18:06:27.345Z,4.40
2018-12-12T18:09:00.981Z,4.40
2018-12-12T18:11:34.639Z,4.40
2018-12-12T18:14:08.223Z,4.40
2018-12-12T18:16:42.660Z,4.40
2018-12-12T18:19:16.179Z,4.40
2018-12-12T18:21:49.838Z,4.40
2018-12-12T18:24:23.546Z,4.40
2018-12-12T18:26:57.816Z,4.40
2018-12-12T18:29:31.367Z,4.40
2018-12-12T18:32:05.869Z,4.30
2018-12-12T18:34:39.504Z,4.30
2018-12-12T18:37:13.218Z,4.40
2018-12-12T18:39:46.763Z,4.40
2018-12-12T18:42:20.385Z,4.30
2018-12-12T18:44:53.965Z,4.40
2018-12-12T18:47:27.535Z,4.30
2018-12-12T18:50:01.316Z,4.30
2018-12-12T18:52:34.879Z,4.30
2018-12-12T18:55:08.558Z,4.30
2018-12-12T18:57:42.183Z,4.30
2018-12-12T19:00:15.705Z,4.30
2018-12-12T19:02:49.279Z,4.30
2018-12-12T19:05:28.274Z,4.20
2018-12-12T19:07:57.516Z,4.20
2018-12-12T19:10:31.209Z,4.20
2018-12-12T19:13:04.936Z,4.10
2018-12-12T19:15:39.337Z,4.10
2018-12-12T19:18:13.142Z,4.10
2018-12-12T19:20:47.539Z,4.10
2018-12-12T19:23:21.090Z,4.10
2018-12-12T19:25:54.766Z,4.10
2018-12-12T19:28:28.374Z,4.10
2018-12-12T19:31:01.943Z,4.20
2018-12-12T19:33:35.532Z,4.10
2018-12-12T19:36:09.285Z,4.10
2018-12-12T19:38:42.883Z,4.00
2018-12-12T19:41:16.508Z,4.00
2018-12-12T19:43:51.021Z,4.00
2018-12-12T19:46:24.595Z,4.00
2018-12-12T19:48:58.171Z,3.90
2018-12-12T19:51:31.918Z,3.90
2018-12-12T19:54:05.629Z,3.90
2018-12-12T19:56:40.814Z,3.90
2018-12-12T19:59:14.475Z,3.90
2018-12-12T20:01:48.188Z,3.90
2018-12-12T20:04:21.761Z,3.80
2018-12-12T20:06:56.299Z,3.70
2018-12-12T20:09:29.939Z,3.70
2018-12-12T20:12:03.653Z,3.70
2018-12-12T20:14:37.329Z,3.70
2018-12-12T20:17:11.006Z,3.70
2018-12-12T20:19:45.319Z,3.70
2018-12-12T20:22:18.850Z,3.70
2018-12-12T20:24:52.595Z,3.70
2018-12-12T20:27:26.322Z,3.70
2018-12-12T20:30:00.027Z,3.80
2018-12-12T20:32:33.582Z,3.70
2018-12-12T20:35:07.582Z,3.70
2018-12-12T20:37:41.364Z,3.70
2018-12-12T20:40:15.459Z,3.70
2018-12-12T20:42:49.040Z,3.70
2018-12-12T20:45:22.778Z,3.70
2018-12-12T20:47:57.077Z,3.70
2018-12-12T20:50:31.386Z,3.80
2018-12-12T20:53:05.033Z,3.80
2018-12-12T20:55:40.799Z,3.80
2018-12-12T20:58:14.498Z,3.80
2018-12-12T21:00:48.195Z,3.80
2018-12-12T21:03:21.746Z,3.80
2018-12-12T21:05:55.403Z,3.80
2018-12-12T21:08:29.071Z,3.80
2018-12-12T21:11:02.730Z,3.80
2018-12-12T21:13:37.168Z,3.80
2018-12-12T21:16:11.595Z,3.80
2018-12-12T21:18:45.314Z,3.80
2018-12-12T21:21:18.986Z,3.80
2018-12-12T21:23:52.704Z,3.70
2018-12-12T21:26:30.017Z,3.60
2018-12-12T21:29:03.641Z,3.60
2018-12-12T21:31:37.200Z,3.40
2018-12-12T21:34:10.908Z,3.40
2018-12-12T21:36:44.529Z,3.40
2018-12-12T21:39:19.057Z,3.40
2018-12-12T21:41:52.695Z,3.40
2018-12-12T21:44:26.383Z,3.50
2018-12-12T21:46:59.967Z,3.50
2018-12-12T21:49:33.515Z,3.50
2018-12-12T21:52:08.036Z,3.60
2018-12-12T21:54:41.677Z,3.60
2018-12-12T21:57:16.193Z,3.70
2018-12-12T21:59:49.822Z,3.60
2018-12-12T22:02:23.518Z,3.70
2018-12-12T22:04:57.077Z,3.60
2018-12-12T22:07:31.618Z,3.50
2018-12-12T22:10:05.233Z,3.50
2018-12-12T22:12:38.917Z,3.50
2018-12-12T22:15:12.653Z,3.50
2018-12-12T22:17:47.152Z,3.30
2018-12-12T22:20:20.747Z,3.30
2018-12-12T22:22:54.452Z,3.30
2018-12-12T22:25:28.119Z,3.20
2018-12-12T22:28:01.890Z,3.10
2018-12-12T22:30:35.596Z,3.20
2018-12-12T22:33:09.176Z,3.20
2018-12-12T22:35:42.785Z,3.20
2018-12-12T22:38:16.489Z,3.10
2018-12-12T22:40:50.810Z,3.10
2018-12-12T22:43:25.279Z,3.10
2018-12-12T22:45:59.730Z,3.00
2018-12-12T22:48:33.332Z,3.00
2018-12-12T22:51:07.046Z,2.90
2018-12-12T22:53:41.537Z,2.90
2018-12-12T22:56:15.183Z,2.80
2018-12-12T22:58:49.474Z,2.90
2018-12-12T23:01:24.034Z,2.90
2018-12-12T23:03:57.675Z,2.90
2018-12-12T23:06:31.346Z,2.80
2018-12-12T23:09:04.919Z,2.80
2018-12-12T23:11:39.429Z,2.70
2018-12-12T23:14:13.019Z,2.70
2018-12-12T23:16:46.713Z,2.70
2018-12-12T23:19:20.239Z,2.70
2018-12-12T23:21:54.582Z,2.60
2018-12-12T23:24:28.228Z,2.60
2018-12-12T23:27:01.790Z,2.60
2018-12-12T23:29:35.335Z,2.60
2018-12-12T23:32:08.880Z,2.50
2018-12-12T23:34:43.364Z,2.60
2018-12-12T23:37:16.985Z,2.60
2018-12-12T23:39:51.445Z,2.60
2018-12-12T23:42:25.391Z,2.60
2018-12-12T23:44:59.906Z,2.60
2018-12-12T23:47:33.455Z,2.60
2018-12-12T23:50:07.138Z,2.70
2018-12-12T23:52:41.649Z,2.70
2018-12-12T23:55:15.441Z,2.70
2018-12-12T23:57:49.091Z,2.70
